Pagina principale
METAR-TAF:

METAR-TAF

Aeroporti :

Batajnica, Serbia

latitudine: 44-56-07N, longitudine: 020-15-27E, altezza: 86 m

Osservazione

Il bollettino è stato emesso 44 minuti fa, alle 06:00 UTC
Vento 3 kt da ovest, variando fra sud-ovest e ovest/nord-ovest
Temperature 17°C
Umidità 94%
Pressione 1006 hPa
Visibilità 10 km o più
Nubi sparse ad un'altezza di 4000 ft
pioggia debole

METAR: LYBT 260600Z 27003KT 230V290 9999 -RA SCT040 17/16 Q1006 NOSIG

Ora: 08:44 (06:44 UTC)

Previsione

Il bollettino è stato emesso 1 ora e 44 minuti fa, alle 05:00 UTC
Previsione valida dal 26 alle 06 UTC al 27 alle 06 UTC
Vento 6 kt da est
Visibilità 10 km o più
Nubi sparse ad un'altezza di 4000 ft

TAF: LYBT 260500Z 2606/2706 09006KT 9999 SCT040 TX27/2614Z TN15/2703Z

Osservazioni e previsioni meteorologiche di più di 4000 aeroporti (messaggi METAR e TAF).

Le stazioni disponibili sono rappresentate dai dischi gialli e rossi sulla carta.

Puntare il mouse per vedere il nome della stazione.

Clicca sopra per visualizzare le osservazioni e previsioni meteorologiche.

Per cambiare la mappa : fare clic sui pulsanti verdi con una croce nera per ingrandire, il pulsante verde con un trattino per diminuire, o sulla freccia verde per le mappe adiacenti.


METAR-TAF: